sensor_id;sensor_type;location;lat;lon;timestamp;pressure;altitude;pressure_sealevel;temperature;humidity
12146;BME280;6136;47.032;15.398;2023-05-24T00:00:38;97383.22;;;15.63;100.00
12146;BME280;6136;47.032;15.398;2023-05-24T00:03:08;97384.19;;;15.62;100.00
12146;BME280;6136;47.032;15.398;2023-05-24T00:05:37;97384.03;;;15.64;100.00
12146;BME280;6136;47.032;15.398;2023-05-24T00:08:06;97386.88;;;15.62;100.00
12146;BME280;6136;47.032;15.398;2023-05-24T00:10:35;97383.22;;;15.63;100.00
12146;BME280;6136;47.032;15.398;2023-05-24T00:13:03;97385.16;;;15.61;100.00
12146;BME280;6136;47.032;15.398;2023-05-24T00:15:32;97375.72;;;15.57;100.00
12146;BME280;6136;47.032;15.398;2023-05-24T00:18:00;97365.06;;;15.46;100.00
12146;BME280;6136;47.032;15.398;2023-05-24T00:20:28;97379.41;;;15.45;100.00
12146;BME280;6136;47.032;15.398;2023-05-24T00:22:58;97377.47;;;15.47;100.00
12146;BME280;6136;47.032;15.398;2023-05-24T00:25:26;97375.47;;;15.49;100.00
12146;BME280;6136;47.032;15.398;2023-05-24T00:27:54;97376.47;;;15.48;100.00
12146;BME280;6136;47.032;15.398;2023-05-24T00:30:24;97374.66;;;15.48;100.00
12146;BME280;6136;47.032;15.398;2023-05-24T00:32:54;97378.88;;;15.51;100.00
12146;BME280;6136;47.032;15.398;2023-05-24T00:35:22;97381.34;;;15.54;100.00
12146;BME280;6136;47.032;15.398;2023-05-24T00:37:52;97374.28;;;15.53;100.00
12146;BME280;6136;47.032;15.398;2023-05-24T00:40:21;97379.72;;;15.51;100.00
12146;BME280;6136;47.032;15.398;2023-05-24T00:42:50;97385.06;;;15.51;100.00
12146;BME280;6136;47.032;15.398;2023-05-24T00:45:18;97385.91;;;15.52;100.00
12146;BME280;6136;47.032;15.398;2023-05-24T00:47:46;97378.88;;;15.51;100.00
12146;BME280;6136;47.032;15.398;2023-05-24T00:50:15;97384.50;;;15.48;100.00
12146;BME280;6136;47.032;15.398;2023-05-24T00:52:44;97381.94;;;15.46;100.00
12146;BME280;6136;47.032;15.398;2023-05-24T00:55:14;97384.50;;;15.48;100.00
12146;BME280;6136;47.032;15.398;2023-05-24T00:57:44;97385.84;;;15.42;100.00
12146;BME280;6136;47.032;15.398;2023-05-24T01:00:14;97382.31;;;15.42;100.00
12146;BME280;6136;47.032;15.398;2023-05-24T01:02:42;97380.66;;;15.41;100.00
12146;BME280;6136;47.032;15.398;2023-05-24T01:05:11;97381.88;;;15.37;100.00
12146;BME280;6136;47.032;15.398;2023-05-24T01:07:49;97376.28;;;15.40;100.00
12146;BME280;6136;47.032;15.398;2023-05-24T01:10:31;97378.69;;;15.43;100.00
12146;BME280;6136;47.032;15.398;2023-05-24T01:13:08;97386.69;;;15.43;100.00
12146;BME280;6136;47.032;15.398;2023-05-24T01:15:44;97392.03;;;15.43;100.00
12146;BME280;6136;47.032;15.398;2023-05-24T01:18:18;97384.53;;;15.37;100.00
12146;BME280;6136;47.032;15.398;2023-05-24T01:20:58;97397.38;;;15.43;100.00
12146;BME280;6136;47.032;15.398;2023-05-24T01:23:40;97400.03;;;15.43;100.00
12146;BME280;6136;47.032;15.398;2023-05-24T01:26:19;97397.25;;;15.44;100.00
12146;BME280;6136;47.032;15.398;2023-05-24T01:28:54;97400.75;;;15.45;100.00
12146;BME280;6136;47.032;15.398;2023-05-24T01:31:23;97408.66;;;15.46;100.00
12146;BME280;6136;47.032;15.398;2023-05-24T01:33:51;97406.09;;;15.45;100.00
12146;BME280;6136;47.032;15.398;2023-05-24T01:36:20;97409.03;;;15.42;100.00
12146;BME280;6136;47.032;15.398;2023-05-24T01:38:49;97404.28;;;15.45;100.00
12146;BME280;6136;47.032;15.398;2023-05-24T01:41:26;97406.22;;;15.43;100.00
12146;BME280;6136;47.032;15.398;2023-05-24T01:44:08;97405.38;;;15.43;100.00
12146;BME280;6136;47.032;15.398;2023-05-24T01:46:40;97400.00;;;15.33;100.00
12146;BME280;6136;47.032;15.398;2023-05-24T01:49:14;97407.38;;;15.30;100.00
12146;BME280;6136;47.032;15.398;2023-05-24T01:51:49;97407.84;;;15.35;100.00
12146;BME280;6136;47.032;15.398;2023-05-24T01:54:21;97401.09;;;15.31;100.00
12146;BME280;6136;47.032;15.398;2023-05-24T01:56:51;97399.13;;;15.33;100.00
12146;BME280;6136;47.032;15.398;2023-05-24T01:59:23;97404.47;;;15.33;100.00
12146;BME280;6136;47.032;15.398;2023-05-24T02:01:53;97402.50;;;15.35;100.00
12146;BME280;6136;47.032;15.398;2023-05-24T02:04:22;97414.19;;;15.34;100.00
12146;BME280;6136;47.032;15.398;2023-05-24T02:06:51;97397.44;;;15.32;100.00
12146;BME280;6136;47.032;15.398;2023-05-24T02:09:19;97407.72;;;15.36;100.00
12146;BME280;6136;47.032;15.398;2023-05-24T02:11:48;97409.81;;;15.33;100.00
12146;BME280;6136;47.032;15.398;2023-05-24T02:14:16;97410.50;;;15.35;100.00
12146;BME280;6136;47.032;15.398;2023-05-24T02:16:47;97405.19;;;15.35;100.00
12146;BME280;6136;47.032;15.398;2023-05-24T02:19:17;97415.84;;;15.35;100.00
12146;BME280;6136;47.032;15.398;2023-05-24T02:21:46;97414.75;;;15.37;100.00
12146;BME280;6136;47.032;15.398;2023-05-24T02:24:14;97411.97;;;15.39;100.00
12146;BME280;6136;47.032;15.398;2023-05-24T02:26:42;97414.75;;;15.37;100.00
12146;BME280;6136;47.032;15.398;2023-05-24T02:29:11;97410.78;;;15.32;100.00
12146;BME280;6136;47.032;15.398;2023-05-24T02:31:39;97419.53;;;15.34;100.00
12146;BME280;6136;47.032;15.398;2023-05-24T02:34:08;97420.34;;;15.34;100.00
12146;BME280;6136;47.032;15.398;2023-05-24T02:36:37;97413.34;;;15.33;100.00
12146;BME280;6136;47.032;15.398;2023-05-24T02:39:05;97416.84;;;15.34;100.00
12146;BME280;6136;47.032;15.398;2023-05-24T02:41:33;97406.31;;;15.32;100.00
12146;BME280;6136;47.032;15.398;2023-05-24T02:44:02;97413.91;;;15.37;100.00
12146;BME280;6136;47.032;15.398;2023-05-24T02:46:30;97407.63;;;15.27;100.00
12146;BME280;6136;47.032;15.398;2023-05-24T02:48:58;97409.00;;;15.21;100.00
12146;BME280;6136;47.032;15.398;2023-05-24T02:51:27;97416.16;;;15.21;100.00
12146;BME280;6136;47.032;15.398;2023-05-24T02:53:56;97411.78;;;15.20;100.00
12146;BME280;6136;47.032;15.398;2023-05-24T02:56:24;97421.63;;;15.19;100.00
12146;BME280;6136;47.032;15.398;2023-05-24T02:58:53;97415.31;;;15.20;100.00
12146;BME280;6136;47.032;15.398;2023-05-24T03:01:22;97422.47;;;15.20;100.00
12146;BME280;6136;47.032;15.398;2023-05-24T03:03:52;97424.44;;;15.18;100.00
12146;BME280;6136;47.032;15.398;2023-05-24T03:06:20;97428.81;;;15.19;100.00
12146;BME280;6136;47.032;15.398;2023-05-24T03:08:51;97429.50;;;15.21;100.00
12146;BME280;6136;47.032;15.398;2023-05-24T03:11:20;97423.59;;;15.17;100.00
12146;BME280;6136;47.032;15.398;2023-05-24T03:13:48;97416.78;;;15.13;100.00
12146;BME280;6136;47.032;15.398;2023-05-24T03:16:17;97428.94;;;15.17;100.00
12146;BME280;6136;47.032;15.398;2023-05-24T03:18:46;97428.09;;;15.17;100.00
12146;BME280;6136;47.032;15.398;2023-05-24T03:21:16;97428.81;;;15.19;100.00
12146;BME280;6136;47.032;15.398;2023-05-24T03:23:47;97422.75;;;15.17;100.00
12146;BME280;6136;47.032;15.398;2023-05-24T03:26:18;97433.31;;;15.18;100.00
12146;BME280;6136;47.032;15.398;2023-05-24T03:28:46;97439.00;;;15.13;100.00
12146;BME280;6136;47.032;15.398;2023-05-24T03:31:19;97437.06;;;15.15;100.00
12146;BME280;6136;47.032;15.398;2023-05-24T03:33:51;97448.47;;;15.18;100.00
12146;BME280;6136;47.032;15.398;2023-05-24T03:36:19;97444.09;;;15.17;100.00
12146;BME280;6136;47.032;15.398;2023-05-24T03:38:47;97451.25;;;15.16;100.00
12146;BME280;6136;47.032;15.398;2023-05-24T03:41:18;97448.81;;;15.13;100.00
12146;BME280;6136;47.032;15.398;2023-05-24T03:43:46;97441.78;;;15.12;100.00
12146;BME280;6136;47.032;15.398;2023-05-24T03:46:16;97441.53;;;15.15;100.00
12146;BME280;6136;47.032;15.398;2023-05-24T03:48:45;97437.91;;;15.16;100.00
12146;BME280;6136;47.032;15.398;2023-05-24T03:51:13;97445.69;;;15.08;100.00
12146;BME280;6136;47.032;15.398;2023-05-24T03:53:42;97447.13;;;15.12;100.00
12146;BME280;6136;47.032;15.398;2023-05-24T03:56:10;97447.84;;;15.14;100.00
12146;BME280;6136;47.032;15.398;2023-05-24T03:58:39;97444.94;;;15.17;100.00
12146;BME280;6136;47.032;15.398;2023-05-24T04:01:07;97442.97;;;15.19;100.00
12146;BME280;6136;47.032;15.398;2023-05-24T04:03:55;97454.88;;;15.26;100.00
12146;BME280;6136;47.032;15.398;2023-05-24T04:06:23;97455.69;;;15.27;100.00
12146;BME280;6136;47.032;15.398;2023-05-24T04:08:57;97453.28;;;15.24;100.00
12146;BME280;6136;47.032;15.398;2023-05-24T04:11:25;97462.03;;;15.26;100.00
12146;BME280;6136;47.032;15.398;2023-05-24T04:13:57;97455.69;;;15.27;100.00
12146;BME280;6136;47.032;15.398;2023-05-24T04:16:27;97464.44;;;15.29;100.00
12146;BME280;6136;47.032;15.398;2023-05-24T04:19:02;97470.50;;;15.31;100.00
12146;BME280;6136;47.032;15.398;2023-05-24T04:21:31;97467.59;;;15.34;100.00
12146;BME280;6136;47.032;15.398;2023-05-24T04:23:59;97476.28;;;15.36;100.00
12146;BME280;6136;47.032;15.398;2023-05-24T04:26:29;97475.31;;;15.37;100.00
12146;BME280;6136;47.032;15.398;2023-05-24T04:28:59;97476.19;;;15.37;100.00
12146;BME280;6136;47.032;15.398;2023-05-24T04:31:28;97468.78;;;15.41;100.00
12146;BME280;6136;47.032;15.398;2023-05-24T04:33:59;97471.44;;;15.41;100.00
12146;BME280;6136;47.032;15.398;2023-05-24T04:36:29;97472.13;;;15.43;100.00
12146;BME280;6136;47.032;15.398;2023-05-24T04:38:59;97469.22;;;15.46;100.00
12146;BME280;6136;47.032;15.398;2023-05-24T04:41:30;97465.09;;;15.42;100.00
12146;BME280;6136;47.032;15.398;2023-05-24T04:44:00;97476.63;;;15.42;100.00
12146;BME280;6136;47.032;15.398;2023-05-24T04:46:28;97480.63;;;15.48;100.00
12146;BME280;6136;47.032;15.398;2023-05-24T04:48:57;97469.09;;;15.47;100.00
12146;BME280;6136;47.032;15.398;2023-05-24T04:51:25;97490.47;;;15.47;100.00
12146;BME280;6136;47.032;15.398;2023-05-24T04:53:53;97488.50;;;15.49;100.00
12146;BME280;6136;47.032;15.398;2023-05-24T04:56:22;97486.56;;;15.51;100.00
12146;BME280;6136;47.032;15.398;2023-05-24T04:58:50;97496.50;;;15.49;100.00
12146;BME280;6136;47.032;15.398;2023-05-24T05:01:20;97486.22;;;15.56;100.00
12146;BME280;6136;47.032;15.398;2023-05-24T05:03:48;97497.34;;;15.61;100.00
12146;BME280;6136;47.032;15.398;2023-05-24T05:06:16;97489.91;;;15.65;100.00
12146;BME280;6136;47.032;15.398;2023-05-24T05:08:45;97493.44;;;15.65;100.00
12146;BME280;6136;47.032;15.398;2023-05-24T05:11:13;97494.91;;;15.69;100.00
12146;BME280;6136;47.032;15.398;2023-05-24T05:13:41;97489.78;;;15.66;100.00
12146;BME280;6136;47.032;15.398;2023-05-24T05:16:10;97481.34;;;15.61;100.00
12146;BME280;6136;47.032;15.398;2023-05-24T05:18:40;97487.56;;;15.71;100.00
12146;BME280;6136;47.032;15.398;2023-05-24T05:21:08;97487.34;;;15.74;100.00
12146;BME280;6136;47.032;15.398;2023-05-24T05:23:36;97487.09;;;15.77;100.00
12146;BME280;6136;47.032;15.398;2023-05-24T05:26:05;97499.19;;;15.81;100.00
12146;BME280;6136;47.032;15.398;2023-05-24T05:28:34;97492.88;;;15.82;100.00
12146;BME280;6136;47.032;15.398;2023-05-24T05:31:02;97495.31;;;15.85;100.00
12146;BME280;6136;47.032;15.398;2023-05-24T05:33:30;97495.03;;;15.88;100.00
12146;BME280;6136;47.032;15.398;2023-05-24T05:36:00;97497.31;;;15.93;100.00
12146;BME280;6136;47.032;15.398;2023-05-24T05:38:28;97500.25;;;15.90;100.00
12146;BME280;6136;47.032;15.398;2023-05-24T05:40:57;97503.25;;;15.97;100.00
12146;BME280;6136;47.032;15.398;2023-05-24T05:43:25;97512.25;;;15.96;100.00
12146;BME280;6136;47.032;15.398;2023-05-24T05:45:54;97507.50;;;15.99;100.00
12146;BME280;6136;47.032;15.398;2023-05-24T05:48:23;97512.44;;;16.04;100.00
12146;BME280;6136;47.032;15.398;2023-05-24T05:50:51;97514.13;;;16.05;100.00
12146;BME280;6136;47.032;15.398;2023-05-24T05:53:21;97513.69;;;16.00;100.00
12146;BME280;6136;47.032;15.398;2023-05-24T05:55:49;97511.00;;;16.00;100.00
12146;BME280;6136;47.032;15.398;2023-05-24T05:58:17;97511.47;;;16.05;100.00
12146;BME280;6136;47.032;15.398;2023-05-24T06:00:45;97514.13;;;16.05;100.00
12146;BME280;6136;47.032;15.398;2023-05-24T06:03:14;97521.19;;;16.06;100.00
12146;BME280;6136;47.032;15.398;2023-05-24T06:05:42;97517.06;;;16.02;100.00
12146;BME280;6136;47.032;15.398;2023-05-24T06:08:10;97520.47;;;16.04;100.00
12146;BME280;6136;47.032;15.398;2023-05-24T06:10:40;97511.59;;;16.03;100.00
12146;BME280;6136;47.032;15.398;2023-05-24T06:13:08;97529.66;;;16.11;100.00
12146;BME280;6136;47.032;15.398;2023-05-24T06:15:36;97527.09;;;16.09;100.00
12146;BME280;6136;47.032;15.398;2023-05-24T06:18:05;97529.97;;;16.17;100.00
12146;BME280;6136;47.032;15.398;2023-05-24T06:20:33;97533.78;;;16.15;100.00
12146;BME280;6136;47.032;15.398;2023-05-24T06:23:02;97534.34;;;16.18;100.00
12146;BME280;6136;47.032;15.398;2023-05-24T06:25:30;97539.97;;;16.15;100.00
12146;BME280;6136;47.032;15.398;2023-05-24T06:28:00;97540.53;;;16.19;100.00
12146;BME280;6136;47.032;15.398;2023-05-24T06:30:28;97543.34;;;16.17;100.00
12146;BME280;6136;47.032;15.398;2023-05-24T06:32:57;97538.00;;;16.17;100.00
12146;BME280;6136;47.032;15.398;2023-05-24T06:35:25;97541.97;;;16.23;100.00
12146;BME280;6136;47.032;15.398;2023-05-24T06:37:54;97541.97;;;16.23;100.00
12146;BME280;6136;47.032;15.398;2023-05-24T06:40:23;97544.91;;;16.20;100.00
12146;BME280;6136;47.032;15.398;2023-05-24T06:42:51;97551.34;;;16.17;100.00
12146;BME280;6136;47.032;15.398;2023-05-24T06:45:21;97545.88;;;16.19;100.00
12146;BME280;6136;47.032;15.398;2023-05-24T06:47:49;97547.06;;;16.26;100.00
12146;BME280;6136;47.032;15.398;2023-05-24T06:50:18;97549.59;;;16.27;100.00
12146;BME280;6136;47.032;15.398;2023-05-24T06:52:46;97549.72;;;16.26;100.00
12146;BME280;6136;47.032;15.398;2023-05-24T06:55:15;97554.09;;;16.27;100.00
12146;BME280;6136;47.032;15.398;2023-05-24T06:57:43;97553.84;;;16.30;100.00
12146;BME280;6136;47.032;15.398;2023-05-24T07:00:12;97561.59;;;16.33;100.00
12146;BME280;6136;47.032;15.398;2023-05-24T07:02:42;97561.16;;;16.28;100.00
12146;BME280;6136;47.032;15.398;2023-05-24T07:05:10;97566.88;;;16.23;100.00
12146;BME280;6136;47.032;15.398;2023-05-24T07:07:39;97561.34;;;16.15;100.00
12146;BME280;6136;47.032;15.398;2023-05-24T07:10:08;97567.03;;;16.22;100.00
12146;BME280;6136;47.032;15.398;2023-05-24T07:12:37;97571.84;;;16.28;100.00
12146;BME280;6136;47.032;15.398;2023-05-24T07:15:06;97565.78;;;16.26;100.00
12146;BME280;6136;47.032;15.398;2023-05-24T07:17:35;97565.91;;;16.24;100.00
12146;BME280;6136;47.032;15.398;2023-05-24T07:20:06;97569.19;;;16.28;100.00
12146;BME280;6136;47.032;15.398;2023-05-24T07:22:37;97567.78;;;16.34;100.00
12146;BME280;6136;47.032;15.398;2023-05-24T07:25:05;97573.91;;;16.45;100.00
12146;BME280;6136;47.032;15.398;2023-05-24T07:27:33;97581.78;;;16.37;100.00
12146;BME280;6136;47.032;15.398;2023-05-24T07:30:02;97585.13;;;16.39;100.00
12146;BME280;6136;47.032;15.398;2023-05-24T07:32:37;97578.09;;;16.38;100.00
12146;BME280;6136;47.032;15.398;2023-05-24T07:35:07;97578.81;;;16.40;100.00
12146;BME280;6136;47.032;15.398;2023-05-24T07:37:38;97578.91;;;16.29;100.00
12146;BME280;6136;47.032;15.398;2023-05-24T07:40:07;97585.88;;;16.20;100.00
12146;BME280;6136;47.032;15.398;2023-05-24T07:42:37;97592.84;;;16.12;100.00
12146;BME280;6136;47.032;15.398;2023-05-24T07:45:06;97588.00;;;16.06;100.00
12146;BME280;6136;47.032;15.398;2023-05-24T07:47:37;97588.38;;;16.01;100.00
12146;BME280;6136;47.032;15.398;2023-05-24T07:50:07;97585.69;;;16.01;100.00
12146;BME280;6136;47.032;15.398;2023-05-24T07:52:36;97590.41;;;16.09;100.00
12146;BME280;6136;47.032;15.398;2023-05-24T07:55:05;97589.19;;;16.13;100.00
12146;BME280;6136;47.032;15.398;2023-05-24T07:57:34;97583.22;;;16.09;100.00
12146;BME280;6136;47.032;15.398;2023-05-24T08:00:02;97603.31;;;16.04;100.00
12146;BME280;6136;47.032;15.398;2023-05-24T08:02:38;97595.06;;;16.07;100.00
12146;BME280;6136;47.032;15.398;2023-05-24T08:05:10;97594.31;;;16.05;100.00
12146;BME280;6136;47.032;15.398;2023-05-24T08:07:38;97592.22;;;16.08;100.00
12146;BME280;6136;47.032;15.398;2023-05-24T08:10:09;97597.47;;;16.10;100.00
12146;BME280;6136;47.032;15.398;2023-05-24T08:12:39;97596.47;;;16.11;100.00
12146;BME280;6136;47.032;15.398;2023-05-24T08:15:08;97598.44;;;16.09;100.00
12146;BME280;6136;47.032;15.398;2023-05-24T08:17:37;97594.25;;;16.16;100.00
12146;BME280;6136;47.032;15.398;2023-05-24T08:20:07;97589.97;;;16.24;100.00
12146;BME280;6136;47.032;15.398;2023-05-24T08:22:39;97596.88;;;16.27;100.00
12146;BME280;6136;47.032;15.398;2023-05-24T08:25:11;97593.28;;;16.17;100.00
12146;BME280;6136;47.032;15.398;2023-05-24T08:27:39;97605.22;;;16.13;100.00
12146;BME280;6136;47.032;15.398;2023-05-24T08:30:08;97610.06;;;16.19;100.00
12146;BME280;6136;47.032;15.398;2023-05-24T08:32:37;97617.50;;;16.15;100.00
12146;BME280;6136;47.032;15.398;2023-05-24T08:35:05;97608.75;;;16.13;100.00
12146;BME280;6136;47.032;15.398;2023-05-24T08:37:48;97617.34;;;16.17;100.00
12146;BME280;6136;47.032;15.398;2023-05-24T08:40:17;97615.91;;;16.13;100.00
12146;BME280;6136;47.032;15.398;2023-05-24T08:42:45;97602.34;;;16.05;100.00
12146;BME280;6136;47.032;15.398;2023-05-24T08:45:16;97616.28;;;16.08;100.00
12146;BME280;6136;47.032;15.398;2023-05-24T08:47:45;97625.03;;;16.10;100.00
12146;BME280;6136;47.032;15.398;2023-05-24T08:50:14;97624.13;;;16.00;100.00
12146;BME280;6136;47.032;15.398;2023-05-24T08:52:43;97627.91;;;15.98;100.00
12146;BME280;6136;47.032;15.398;2023-05-24T08:55:14;97626.44;;;15.93;100.00
12146;BME280;6136;47.032;15.398;2023-05-24T08:57:44;97631.78;;;15.93;100.00
12146;BME280;6136;47.032;15.398;2023-05-24T09:00:14;97632.56;;;15.84;100.00
12146;BME280;6136;47.032;15.398;2023-05-24T09:02:44;97641.50;;;15.95;100.00
12146;BME280;6136;47.032;15.398;2023-05-24T09:05:13;97637.41;;;15.90;100.00
12146;BME280;6136;47.032;15.398;2023-05-24T09:07:44;97644.94;;;15.85;100.00
12146;BME280;6136;47.032;15.398;2023-05-24T09:10:14;97647.13;;;15.80;100.00
12146;BME280;6136;47.032;15.398;2023-05-24T09:12:44;97651.28;;;15.73;100.00
12146;BME280;6136;47.032;15.398;2023-05-24T09:15:14;97657.47;;;15.74;100.00
12146;BME280;6136;47.032;15.398;2023-05-24T09:17:42;97642.53;;;15.71;100.00
12146;BME280;6136;47.032;15.398;2023-05-24T09:20:11;97635.63;;;15.69;100.00
12146;BME280;6136;47.032;15.398;2023-05-24T09:22:41;97642.28;;;15.74;100.00
12146;BME280;6136;47.032;15.398;2023-05-24T09:25:12;97647.41;;;15.77;100.00
12146;BME280;6136;47.032;15.398;2023-05-24T09:27:48;97642.91;;;15.78;100.00
12146;BME280;6136;47.032;15.398;2023-05-24T09:30:17;97638.81;;;15.63;100.00
12146;BME280;6136;47.032;15.398;2023-05-24T09:32:56;97644.38;;;15.71;100.00
12146;BME280;6136;47.032;15.398;2023-05-24T09:35:25;97650.78;;;15.79;100.00
12146;BME280;6136;47.032;15.398;2023-05-24T09:37:54;97658.94;;;15.78;100.00
12146;BME280;6136;47.032;15.398;2023-05-24T09:40:26;97657.09;;;15.78;100.00
12146;BME280;6136;47.032;15.398;2023-05-24T09:43:06;97659.53;;;15.81;100.00
12146;BME280;6136;47.032;15.398;2023-05-24T09:45:45;97654.84;;;15.95;100.00
12146;BME280;6136;47.032;15.398;2023-05-24T09:48:15;97655.97;;;15.92;100.00
12146;BME280;6136;47.032;15.398;2023-05-24T09:50:44;97655.38;;;15.88;100.00
12146;BME280;6136;47.032;15.398;2023-05-24T09:53:24;97658.38;;;15.95;100.00
12146;BME280;6136;47.032;15.398;2023-05-24T09:55:53;97654.41;;;15.89;100.00
12146;BME280;6136;47.032;15.398;2023-05-24T09:58:28;97661.56;;;15.89;100.00
12146;BME280;6136;47.032;15.398;2023-05-24T10:01:03;97656.84;;;15.93;100.00
12146;BME280;6136;47.032;15.398;2023-05-24T10:03:32;97659.47;;;16.04;100.00
12146;BME280;6136;47.032;15.398;2023-05-24T10:06:01;97658.44;;;16.16;100.00
12146;BME280;6136;47.032;15.398;2023-05-24T10:08:33;97651.47;;;16.24;100.00
12146;BME280;6136;47.032;15.398;2023-05-24T10:11:02;97659.13;;;16.29;100.00
12146;BME280;6136;47.032;15.398;2023-05-24T10:13:34;97665.91;;;16.33;100.00
12146;BME280;6136;47.032;15.398;2023-05-24T10:16:03;97660.31;;;16.36;100.00
12146;BME280;6136;47.032;15.398;2023-05-24T10:18:32;97659.19;;;16.39;100.00
12146;BME280;6136;47.032;15.398;2023-05-24T10:21:01;97657.31;;;16.50;100.00
12146;BME280;6136;47.032;15.398;2023-05-24T10:23:36;97647.59;;;16.49;100.00
12146;BME280;6136;47.032;15.398;2023-05-24T10:26:06;97662.66;;;16.50;100.00
12146;BME280;6136;47.032;15.398;2023-05-24T10:28:39;97654.97;;;16.78;100.00
12146;BME280;6136;47.032;15.398;2023-05-24T10:31:10;97659.88;;;16.93;100.00
12146;BME280;6136;47.032;15.398;2023-05-24T10:33:42;97664.09;;;17.17;100.00
12146;BME280;6136;47.032;15.398;2023-05-24T10:36:12;97661.75;;;17.33;100.00
12146;BME280;6136;47.032;15.398;2023-05-24T10:38:41;97665.81;;;17.27;100.00
12146;BME280;6136;47.032;15.398;2023-05-24T10:41:10;97673.22;;;17.44;100.00
12146;BME280;6136;47.032;15.398;2023-05-24T10:43:44;97676.38;;;17.29;100.00
12146;BME280;6136;47.032;15.398;2023-05-24T10:46:33;97676.97;;;17.02;100.00
12146;BME280;6136;47.032;15.398;2023-05-24T10:49:01;97673.16;;;17.04;100.00
12146;BME280;6136;47.032;15.398;2023-05-24T10:51:35;97667.13;;;17.33;100.00
12146;BME280;6136;47.032;15.398;2023-05-24T10:54:12;97666.47;;;17.20;100.00
12146;BME280;6136;47.032;15.398;2023-05-24T10:56:43;97674.72;;;17.37;100.00
12146;BME280;6136;47.032;15.398;2023-05-24T10:59:27;97670.53;;;17.44;100.00
12146;BME280;6136;47.032;15.398;2023-05-24T11:01:56;97669.00;;;17.52;100.00
12146;BME280;6136;47.032;15.398;2023-05-24T11:04:30;97676.31;;;17.40;100.00
12146;BME280;6136;47.032;15.398;2023-05-24T11:07:03;97672.94;;;17.48;100.00
12146;BME280;6136;47.032;15.398;2023-05-24T11:09:32;97673.94;;;17.46;100.00
12146;BME280;6136;47.032;15.398;2023-05-24T11:12:02;97672.16;;;17.26;100.00
12146;BME280;6136;47.032;15.398;2023-05-24T11:14:36;97667.06;;;17.23;100.00
12146;BME280;6136;47.032;15.398;2023-05-24T11:17:06;97666.94;;;17.25;100.00
12146;BME280;6136;47.032;15.398;2023-05-24T11:19:36;97661.59;;;17.25;100.00
12146;BME280;6136;47.032;15.398;2023-05-24T11:22:06;97664.28;;;17.34;100.00
12146;BME280;6136;47.032;15.398;2023-05-24T11:24:35;97673.09;;;17.46;100.00
12146;BME280;6136;47.032;15.398;2023-05-24T11:27:04;97670.53;;;17.44;100.00
12146;BME280;6136;47.032;15.398;2023-05-24T11:29:40;97673.22;;;17.44;100.00
12146;BME280;6136;47.032;15.398;2023-05-24T11:32:09;97668.03;;;17.53;100.00
12146;BME280;6136;47.032;15.398;2023-05-24T11:34:41;97673.81;;;17.58;100.00
12146;BME280;6136;47.032;15.398;2023-05-24T11:37:11;97675.88;;;17.44;100.00
12146;BME280;6136;47.032;15.398;2023-05-24T11:39:48;97665.59;;;17.40;100.00
12146;BME280;6136;47.032;15.398;2023-05-24T11:42:17;97665.66;;;17.29;100.00
12146;BME280;6136;47.032;15.398;2023-05-24T11:44:47;97665.38;;;17.22;100.00
12146;BME280;6136;47.032;15.398;2023-05-24T11:47:19;97667.97;;;17.33;100.00
12146;BME280;6136;47.032;15.398;2023-05-24T11:49:49;97667.91;;;17.24;100.00
12146;BME280;6136;47.032;15.398;2023-05-24T11:52:18;97664.81;;;17.28;100.00
12146;BME280;6136;47.032;15.398;2023-05-24T11:54:46;97662.44;;;17.25;100.00
12146;BME280;6136;47.032;15.398;2023-05-24T11:57:17;97661.72;;;17.23;100.00
12146;BME280;6136;47.032;15.398;2023-05-24T11:59:49;97656.34;;;17.23;100.00
12146;BME280;6136;47.032;15.398;2023-05-24T12:02:17;97653.50;;;17.15;100.00
12146;BME280;6136;47.032;15.398;2023-05-24T12:04:45;97661.41;;;17.17;100.00
12146;BME280;6136;47.032;15.398;2023-05-24T12:07:14;97668.75;;;17.24;100.00
12146;BME280;6136;47.032;15.398;2023-05-24T12:09:43;97660.25;;;17.19;100.00
12146;BME280;6136;47.032;15.398;2023-05-24T12:12:12;97663.09;;;17.18;100.00
12146;BME280;6136;47.032;15.398;2023-05-24T12:14:40;97655.06;;;17.18;100.00
12146;BME280;6136;47.032;15.398;2023-05-24T12:17:14;97660.00;;;17.22;100.00
12146;BME280;6136;47.032;15.398;2023-05-24T12:19:43;97653.69;;;17.23;100.00
12146;BME280;6136;47.032;15.398;2023-05-24T12:22:12;97653.75;;;17.12;100.00
12146;BME280;6136;47.032;15.398;2023-05-24T12:24:40;97658.94;;;17.04;100.00
12146;BME280;6136;47.032;15.398;2023-05-24T12:27:10;97656.53;;;17.01;100.00
12146;BME280;6136;47.032;15.398;2023-05-24T12:29:39;97657.81;;;17.06;100.00
12146;BME280;6136;47.032;15.398;2023-05-24T12:32:08;97649.06;;;17.04;100.00
12146;BME280;6136;47.032;15.398;2023-05-24T12:34:43;97656.72;;;17.09;100.00
12146;BME280;6136;47.032;15.398;2023-05-24T12:37:11;97652.59;;;17.05;100.00
12146;BME280;6136;47.032;15.398;2023-05-24T12:39:40;97657.63;;;16.98;100.00
12146;BME280;6136;47.032;15.398;2023-05-24T12:42:10;97656.59;;;16.90;100.00
12146;BME280;6136;47.032;15.398;2023-05-24T12:44:39;97649.03;;;16.95;100.00
12146;BME280;6136;47.032;15.398;2023-05-24T12:47:08;97650.44;;;16.99;100.00
12146;BME280;6136;47.032;15.398;2023-05-24T12:49:37;97646.72;;;17.11;100.00
12146;BME280;6136;47.032;15.398;2023-05-24T12:52:07;97650.38;;;17.10;100.00
12146;BME280;6136;47.032;15.398;2023-05-24T12:54:35;97658.59;;;17.18;100.00
12146;BME280;6136;47.032;15.398;2023-05-24T12:57:03;97651.78;;;17.14;100.00
12146;BME280;6136;47.032;15.398;2023-05-24T12:59:32;97644.44;;;17.06;100.00
12146;BME280;6136;47.032;15.398;2023-05-24T13:02:00;97640.03;;;16.96;100.00
12146;BME280;6136;47.032;15.398;2023-05-24T13:04:29;97643.28;;;16.99;100.00